sensor_id;sensor_type;location;lat;lon;timestamp;P1;durP1;ratioP1;P2;durP2;ratioP2
15567;SDS011;7885;42.596;23.044;2022-09-03T00:01:19;8.27;;;6.47;;
15567;SDS011;7885;42.596;23.044;2022-09-03T00:03:51;6.63;;;6.00;;
15567;SDS011;7885;42.596;23.044;2022-09-03T00:13:05;7.40;;;6.20;;
15567;SDS011;7885;42.596;23.044;2022-09-03T00:15:34;6.97;;;6.27;;
15567;SDS011;7885;42.596;23.044;2022-09-03T00:18:05;8.20;;;6.30;;
15567;SDS011;7885;42.596;23.044;2022-09-03T00:20:37;7.43;;;6.43;;
15567;SDS011;7885;42.596;23.044;2022-09-03T00:23:07;6.80;;;6.10;;
15567;SDS011;7885;42.596;23.044;2022-09-03T00:25:39;6.83;;;6.17;;
15567;SDS011;7885;42.596;23.044;2022-09-03T00:28:11;7.73;;;6.80;;
15567;SDS011;7885;42.596;23.044;2022-09-03T00:30:41;7.30;;;6.13;;
15567;SDS011;7885;42.596;23.044;2022-09-03T00:33:11;7.13;;;6.10;;
15567;SDS011;7885;42.596;23.044;2022-09-03T00:35:45;7.90;;;6.60;;
15567;SDS011;7885;42.596;23.044;2022-09-03T00:38:17;6.67;;;5.90;;
15567;SDS011;7885;42.596;23.044;2022-09-03T00:40:55;6.93;;;6.13;;
15567;SDS011;7885;42.596;23.044;2022-09-03T00:43:35;6.77;;;5.77;;
15567;SDS011;7885;42.596;23.044;2022-09-03T00:46:14;6.57;;;5.97;;
15567;SDS011;7885;42.596;23.044;2022-09-03T00:48:58;7.47;;;6.70;;
15567;SDS011;7885;42.596;23.044;2022-09-03T00:51:43;7.10;;;5.77;;
15567;SDS011;7885;42.596;23.044;2022-09-03T00:54:19;9.40;;;6.87;;
15567;SDS011;7885;42.596;23.044;2022-09-03T00:56:59;7.63;;;6.77;;
15567;SDS011;7885;42.596;23.044;2022-09-03T00:59:33;7.23;;;6.30;;
15567;SDS011;7885;42.596;23.044;2022-09-03T01:02:12;7.40;;;6.60;;
15567;SDS011;7885;42.596;23.044;2022-09-03T01:04:54;7.57;;;6.63;;
15567;SDS011;7885;42.596;23.044;2022-09-03T01:07:35;7.20;;;6.20;;
15567;SDS011;7885;42.596;23.044;2022-09-03T01:10:15;6.87;;;6.27;;
15567;SDS011;7885;42.596;23.044;2022-09-03T01:12:51;7.10;;;6.40;;
15567;SDS011;7885;42.596;23.044;2022-09-03T01:15:25;8.03;;;7.10;;
15567;SDS011;7885;42.596;23.044;2022-09-03T01:18:08;7.83;;;7.00;;
15567;SDS011;7885;42.596;23.044;2022-09-03T01:20:57;7.20;;;6.60;;
15567;SDS011;7885;42.596;23.044;2022-09-03T01:26:52;7.77;;;7.17;;
15567;SDS011;7885;42.596;23.044;2022-09-03T01:29:33;8.40;;;7.53;;
15567;SDS011;7885;42.596;23.044;2022-09-03T01:32:10;7.83;;;7.00;;
15567;SDS011;7885;42.596;23.044;2022-09-03T01:34:46;7.80;;;6.90;;
15567;SDS011;7885;42.596;23.044;2022-09-03T01:37:21;7.63;;;6.93;;
15567;SDS011;7885;42.596;23.044;2022-09-03T01:40:00;7.07;;;6.40;;
15567;SDS011;7885;42.596;23.044;2022-09-03T01:42:32;8.40;;;7.10;;
15567;SDS011;7885;42.596;23.044;2022-09-03T01:45:22;7.40;;;6.70;;
15567;SDS011;7885;42.596;23.044;2022-09-03T01:48:03;7.70;;;6.80;;
15567;SDS011;7885;42.596;23.044;2022-09-03T01:50:42;8.53;;;6.73;;
15567;SDS011;7885;42.596;23.044;2022-09-03T01:53:17;7.67;;;6.87;;
15567;SDS011;7885;42.596;23.044;2022-09-03T01:55:55;7.23;;;6.53;;
15567;SDS011;7885;42.596;23.044;2022-09-03T01:58:34;7.77;;;6.40;;
15567;SDS011;7885;42.596;23.044;2022-09-03T02:01:10;9.13;;;7.30;;
15567;SDS011;7885;42.596;23.044;2022-09-03T02:03:42;6.87;;;6.27;;
15567;SDS011;7885;42.596;23.044;2022-09-03T02:06:11;8.67;;;7.10;;
15567;SDS011;7885;42.596;23.044;2022-09-03T02:08:38;7.73;;;7.03;;
15567;SDS011;7885;42.596;23.044;2022-09-03T02:11:07;7.40;;;6.60;;
15567;SDS011;7885;42.596;23.044;2022-09-03T02:13:36;7.53;;;6.83;;
15567;SDS011;7885;42.596;23.044;2022-09-03T02:16:06;8.33;;;7.53;;
15567;SDS011;7885;42.596;23.044;2022-09-03T02:18:39;9.43;;;6.77;;
15567;SDS011;7885;42.596;23.044;2022-09-03T02:21:08;8.53;;;6.43;;
15567;SDS011;7885;42.596;23.044;2022-09-03T02:23:37;6.87;;;6.27;;
15567;SDS011;7885;42.596;23.044;2022-09-03T02:26:05;7.00;;;6.13;;
15567;SDS011;7885;42.596;23.044;2022-09-03T02:28:33;8.50;;;6.60;;
15567;SDS011;7885;42.596;23.044;2022-09-03T02:31:00;9.00;;;8.10;;
15567;SDS011;7885;42.596;23.044;2022-09-03T02:33:29;10.47;;;7.20;;
15567;SDS011;7885;42.596;23.044;2022-09-03T02:35:57;7.50;;;6.80;;
15567;SDS011;7885;42.596;23.044;2022-09-03T02:38:24;6.30;;;5.80;;
15567;SDS011;7885;42.596;23.044;2022-09-03T02:40:52;6.77;;;5.67;;
15567;SDS011;7885;42.596;23.044;2022-09-03T02:43:21;6.43;;;5.40;;
15567;SDS011;7885;42.596;23.044;2022-09-03T02:45:53;6.63;;;6.03;;
15567;SDS011;7885;42.596;23.044;2022-09-03T02:48:24;6.43;;;5.73;;
15567;SDS011;7885;42.596;23.044;2022-09-03T02:50:53;7.20;;;6.50;;
15567;SDS011;7885;42.596;23.044;2022-09-03T02:53:20;6.60;;;5.97;;
15567;SDS011;7885;42.596;23.044;2022-09-03T02:55:46;6.60;;;6.07;;
15567;SDS011;7885;42.596;23.044;2022-09-03T02:58:13;7.00;;;6.30;;
15567;SDS011;7885;42.596;23.044;2022-09-03T03:00:40;6.70;;;6.13;;
15567;SDS011;7885;42.596;23.044;2022-09-03T03:03:07;7.00;;;5.90;;
15567;SDS011;7885;42.596;23.044;2022-09-03T03:05:35;6.97;;;6.27;;
15567;SDS011;7885;42.596;23.044;2022-09-03T03:08:11;6.90;;;5.90;;
15567;SDS011;7885;42.596;23.044;2022-09-03T03:10:39;6.57;;;5.97;;
15567;SDS011;7885;42.596;23.044;2022-09-03T03:13:06;7.17;;;6.57;;
15567;SDS011;7885;42.596;23.044;2022-09-03T03:15:32;9.10;;;6.60;;
15567;SDS011;7885;42.596;23.044;2022-09-03T03:17:59;6.50;;;5.90;;
15567;SDS011;7885;42.596;23.044;2022-09-03T03:20:26;7.13;;;6.40;;
15567;SDS011;7885;42.596;23.044;2022-09-03T03:22:54;6.97;;;6.27;;
15567;SDS011;7885;42.596;23.044;2022-09-03T03:25:22;6.67;;;6.00;;
15567;SDS011;7885;42.596;23.044;2022-09-03T03:27:48;6.70;;;6.03;;
15567;SDS011;7885;42.596;23.044;2022-09-03T03:30:16;7.20;;;6.17;;
15567;SDS011;7885;42.596;23.044;2022-09-03T03:32:45;7.03;;;6.30;;
15567;SDS011;7885;42.596;23.044;2022-09-03T03:35:11;7.10;;;6.40;;
15567;SDS011;7885;42.596;23.044;2022-09-03T03:37:38;6.80;;;6.20;;
15567;SDS011;7885;42.596;23.044;2022-09-03T03:40:05;7.83;;;6.77;;
15567;SDS011;7885;42.596;23.044;2022-09-03T03:42:34;6.67;;;6.07;;
15567;SDS011;7885;42.596;23.044;2022-09-03T03:45:01;6.70;;;6.10;;
15567;SDS011;7885;42.596;23.044;2022-09-03T03:47:28;7.23;;;6.43;;
15567;SDS011;7885;42.596;23.044;2022-09-03T03:49:55;7.83;;;6.67;;
15567;SDS011;7885;42.596;23.044;2022-09-03T03:52:22;8.13;;;6.77;;
15567;SDS011;7885;42.596;23.044;2022-09-03T03:54:49;7.73;;;6.73;;
15567;SDS011;7885;42.596;23.044;2022-09-03T03:57:15;7.37;;;6.67;;
15567;SDS011;7885;42.596;23.044;2022-09-03T03:59:44;7.70;;;6.63;;
15567;SDS011;7885;42.596;23.044;2022-09-03T04:02:12;6.77;;;5.87;;
15567;SDS011;7885;42.596;23.044;2022-09-03T04:04:39;7.30;;;6.70;;
15567;SDS011;7885;42.596;23.044;2022-09-03T04:07:06;7.83;;;6.40;;
15567;SDS011;7885;42.596;23.044;2022-09-03T04:09:33;9.07;;;6.73;;
15567;SDS011;7885;42.596;23.044;2022-09-03T04:12:00;7.90;;;7.10;;
15567;SDS011;7885;42.596;23.044;2022-09-03T04:14:27;7.60;;;6.70;;
15567;SDS011;7885;42.596;23.044;2022-09-03T04:16:55;7.20;;;6.60;;
15567;SDS011;7885;42.596;23.044;2022-09-03T04:19:22;7.73;;;6.87;;
15567;SDS011;7885;42.596;23.044;2022-09-03T04:21:49;7.40;;;6.70;;
15567;SDS011;7885;42.596;23.044;2022-09-03T04:24:15;8.07;;;6.90;;
15567;SDS011;7885;42.596;23.044;2022-09-03T04:26:42;6.80;;;6.20;;
15567;SDS011;7885;42.596;23.044;2022-09-03T04:29:09;6.30;;;5.70;;
15567;SDS011;7885;42.596;23.044;2022-09-03T04:31:36;8.57;;;6.07;;
15567;SDS011;7885;42.596;23.044;2022-09-03T04:34:25;6.73;;;5.50;;
15567;SDS011;7885;42.596;23.044;2022-09-03T04:36:52;6.87;;;5.90;;
15567;SDS011;7885;42.596;23.044;2022-09-03T04:39:19;6.40;;;5.80;;
15567;SDS011;7885;42.596;23.044;2022-09-03T04:41:45;6.23;;;5.63;;
15567;SDS011;7885;42.596;23.044;2022-09-03T04:44:12;6.60;;;6.00;;
15567;SDS011;7885;42.596;23.044;2022-09-03T04:46:39;6.00;;;5.50;;
15567;SDS011;7885;42.596;23.044;2022-09-03T04:49:06;6.90;;;6.23;;
15567;SDS011;7885;42.596;23.044;2022-09-03T04:51:35;6.73;;;6.00;;
15567;SDS011;7885;42.596;23.044;2022-09-03T04:54:03;6.53;;;5.90;;
15567;SDS011;7885;42.596;23.044;2022-09-03T04:56:30;6.20;;;5.60;;
15567;SDS011;7885;42.596;23.044;2022-09-03T04:58:59;6.87;;;6.17;;
15567;SDS011;7885;42.596;23.044;2022-09-03T05:01:27;6.63;;;6.03;;
15567;SDS011;7885;42.596;23.044;2022-09-03T05:03:55;6.57;;;5.90;;
15567;SDS011;7885;42.596;23.044;2022-09-03T05:06:22;6.70;;;5.77;;
15567;SDS011;7885;42.596;23.044;2022-09-03T05:08:51;6.77;;;6.13;;
15567;SDS011;7885;42.596;23.044;2022-09-03T05:11:20;6.53;;;5.97;;
15567;SDS011;7885;42.596;23.044;2022-09-03T05:13:48;6.97;;;6.27;;
15567;SDS011;7885;42.596;23.044;2022-09-03T05:16:16;7.23;;;6.53;;
15567;SDS011;7885;42.596;23.044;2022-09-03T05:18:43;6.20;;;5.60;;
15567;SDS011;7885;42.596;23.044;2022-09-03T05:21:11;6.80;;;6.10;;
15567;SDS011;7885;42.596;23.044;2022-09-03T05:23:40;6.77;;;6.13;;
15567;SDS011;7885;42.596;23.044;2022-09-03T05:26:10;6.43;;;5.80;;
15567;SDS011;7885;42.596;23.044;2022-09-03T05:28:38;6.57;;;5.97;;
15567;SDS011;7885;42.596;23.044;2022-09-03T05:31:07;7.10;;;6.40;;
15567;SDS011;7885;42.596;23.044;2022-09-03T05:33:35;6.03;;;5.43;;
15567;SDS011;7885;42.596;23.044;2022-09-03T05:36:03;6.27;;;5.67;;
15567;SDS011;7885;42.596;23.044;2022-09-03T05:38:31;6.47;;;5.70;;
15567;SDS011;7885;42.596;23.044;2022-09-03T05:40:59;5.70;;;5.20;;
15567;SDS011;7885;42.596;23.044;2022-09-03T05:43:28;5.50;;;5.00;;
15567;SDS011;7885;42.596;23.044;2022-09-03T05:45:58;4.83;;;4.40;;
15567;SDS011;7885;42.596;23.044;2022-09-03T05:48:25;5.40;;;4.83;;
15567;SDS011;7885;42.596;23.044;2022-09-03T05:50:57;5.50;;;5.07;;
15567;SDS011;7885;42.596;23.044;2022-09-03T05:53:26;5.03;;;4.63;;
15567;SDS011;7885;42.596;23.044;2022-09-03T05:55:56;5.37;;;4.97;;
15567;SDS011;7885;42.596;23.044;2022-09-03T05:58:23;4.70;;;4.30;;
15567;SDS011;7885;42.596;23.044;2022-09-03T06:00:52;6.17;;;4.10;;
15567;SDS011;7885;42.596;23.044;2022-09-03T06:03:19;4.20;;;3.90;;
15567;SDS011;7885;42.596;23.044;2022-09-03T06:05:49;4.03;;;3.73;;
15567;SDS011;7885;42.596;23.044;2022-09-03T06:08:16;5.70;;;3.80;;
15567;SDS011;7885;42.596;23.044;2022-09-03T06:10:43;4.53;;;4.20;;
15567;SDS011;7885;42.596;23.044;2022-09-03T06:13:10;4.47;;;4.07;;
15567;SDS011;7885;42.596;23.044;2022-09-03T06:15:37;3.83;;;3.53;;
15567;SDS011;7885;42.596;23.044;2022-09-03T06:18:05;4.80;;;4.40;;
15567;SDS011;7885;42.596;23.044;2022-09-03T06:20:32;4.77;;;4.37;;
15567;SDS011;7885;42.596;23.044;2022-09-03T06:22:58;4.87;;;4.47;;
15567;SDS011;7885;42.596;23.044;2022-09-03T06:25:25;4.57;;;4.17;;
15567;SDS011;7885;42.596;23.044;2022-09-03T06:27:52;4.17;;;3.80;;
15567;SDS011;7885;42.596;23.044;2022-09-03T06:30:19;5.00;;;4.23;;
15567;SDS011;7885;42.596;23.044;2022-09-03T06:32:48;4.50;;;4.10;;
15567;SDS011;7885;42.596;23.044;2022-09-03T06:35:17;4.63;;;4.23;;
15567;SDS011;7885;42.596;23.044;2022-09-03T06:37:45;5.00;;;4.50;;
15567;SDS011;7885;42.596;23.044;2022-09-03T06:40:11;4.97;;;4.20;;
15567;SDS011;7885;42.596;23.044;2022-09-03T06:42:53;4.83;;;4.40;;
15567;SDS011;7885;42.596;23.044;2022-09-03T06:56:03;5.03;;;4.60;;
15567;SDS011;7885;42.596;23.044;2022-09-03T06:58:32;4.73;;;4.33;;
15567;SDS011;7885;42.596;23.044;2022-09-03T07:01:00;5.27;;;4.87;;
15567;SDS011;7885;42.596;23.044;2022-09-03T07:03:27;6.97;;;5.43;;
15567;SDS011;7885;42.596;23.044;2022-09-03T07:05:58;5.20;;;4.70;;
15567;SDS011;7885;42.596;23.044;2022-09-03T07:08:26;7.13;;;5.20;;
15567;SDS011;7885;42.596;23.044;2022-09-03T07:10:54;5.10;;;4.60;;
15567;SDS011;7885;42.596;23.044;2022-09-03T07:13:22;5.70;;;5.20;;
15567;SDS011;7885;42.596;23.044;2022-09-03T07:15:57;5.63;;;5.23;;
15567;SDS011;7885;42.596;23.044;2022-09-03T07:18:26;5.00;;;4.60;;
15567;SDS011;7885;42.596;23.044;2022-09-03T07:20:56;5.77;;;5.33;;
15567;SDS011;7885;42.596;23.044;2022-09-03T07:23:23;5.10;;;4.70;;
15567;SDS011;7885;42.596;23.044;2022-09-03T07:25:51;6.10;;;5.57;;
15567;SDS011;7885;42.596;23.044;2022-09-03T07:28:19;6.07;;;5.30;;
15567;SDS011;7885;42.596;23.044;2022-09-03T07:30:47;6.20;;;5.70;;
15567;SDS011;7885;42.596;23.044;2022-09-03T07:33:14;5.37;;;4.97;;
15567;SDS011;7885;42.596;23.044;2022-09-03T07:35:41;5.30;;;4.73;;
15567;SDS011;7885;42.596;23.044;2022-09-03T07:38:08;5.13;;;4.73;;
15567;SDS011;7885;42.596;23.044;2022-09-03T07:40:35;5.73;;;5.30;;
15567;SDS011;7885;42.596;23.044;2022-09-03T07:43:03;7.00;;;5.37;;
15567;SDS011;7885;42.596;23.044;2022-09-03T07:45:30;4.90;;;4.37;;
15567;SDS011;7885;42.596;23.044;2022-09-03T07:47:58;5.27;;;4.87;;
15567;SDS011;7885;42.596;23.044;2022-09-03T07:50:25;6.47;;;4.80;;
15567;SDS011;7885;42.596;23.044;2022-09-03T07:52:56;5.50;;;4.87;;
15567;SDS011;7885;42.596;23.044;2022-09-03T07:55:23;5.23;;;4.80;;
15567;SDS011;7885;42.596;23.044;2022-09-03T07:57:54;5.37;;;4.87;;
15567;SDS011;7885;42.596;23.044;2022-09-03T08:00:21;5.30;;;4.80;;
15567;SDS011;7885;42.596;23.044;2022-09-03T08:02:48;4.53;;;4.13;;
15567;SDS011;7885;42.596;23.044;2022-09-03T08:05:18;5.10;;;4.70;;
15567;SDS011;7885;42.596;23.044;2022-09-03T08:07:46;5.90;;;5.37;;
15567;SDS011;7885;42.596;23.044;2022-09-03T08:10:13;5.00;;;4.60;;
15567;SDS011;7885;42.596;23.044;2022-09-03T08:12:40;5.57;;;5.17;;
15567;SDS011;7885;42.596;23.044;2022-09-03T08:15:07;5.17;;;4.77;;
15567;SDS011;7885;42.596;23.044;2022-09-03T08:17:35;5.53;;;5.13;;
15567;SDS011;7885;42.596;23.044;2022-09-03T08:20:02;5.90;;;5.50;;
15567;SDS011;7885;42.596;23.044;2022-09-03T08:22:30;6.10;;;5.60;;
15567;SDS011;7885;42.596;23.044;2022-09-03T08:24:58;5.87;;;5.47;;
15567;SDS011;7885;42.596;23.044;2022-09-03T08:27:25;5.70;;;5.13;;
15567;SDS011;7885;42.596;23.044;2022-09-03T08:29:51;5.20;;;4.80;;
15567;SDS011;7885;42.596;23.044;2022-09-03T08:32:18;5.40;;;5.00;;
15567;SDS011;7885;42.596;23.044;2022-09-03T08:34:45;5.33;;;5.00;;
15567;SDS011;7885;42.596;23.044;2022-09-03T08:37:12;5.73;;;5.23;;
15567;SDS011;7885;42.596;23.044;2022-09-03T08:39:40;5.43;;;5.03;;
15567;SDS011;7885;42.596;23.044;2022-09-03T08:45:28;6.20;;;5.70;;
15567;SDS011;7885;42.596;23.044;2022-09-03T08:48:00;5.63;;;5.23;;
15567;SDS011;7885;42.596;23.044;2022-09-03T08:50:33;5.57;;;5.17;;
15567;SDS011;7885;42.596;23.044;2022-09-03T08:53:06;5.70;;;5.20;;
15567;SDS011;7885;42.596;23.044;2022-09-03T08:55:40;4.90;;;4.60;;
15567;SDS011;7885;42.596;23.044;2022-09-03T08:58:13;5.43;;;5.03;;
15567;SDS011;7885;42.596;23.044;2022-09-03T09:00:46;5.53;;;4.70;;
15567;SDS011;7885;42.596;23.044;2022-09-03T09:03:25;6.93;;;4.57;;
15567;SDS011;7885;42.596;23.044;2022-09-03T09:06:12;4.77;;;4.40;;
15567;SDS011;7885;42.596;23.044;2022-09-03T09:08:47;6.00;;;4.23;;
15567;SDS011;7885;42.596;23.044;2022-09-03T09:11:28;4.37;;;4.03;;
15567;SDS011;7885;42.596;23.044;2022-09-03T09:14:06;4.53;;;3.90;;
15567;SDS011;7885;42.596;23.044;2022-09-03T09:16:46;3.70;;;3.40;;
15567;SDS011;7885;42.596;23.044;2022-09-03T09:19:24;3.30;;;3.10;;
15567;SDS011;7885;42.596;23.044;2022-09-03T09:22:02;3.40;;;3.20;;
15567;SDS011;7885;42.596;23.044;2022-09-03T09:24:34;3.05;;;2.72;;
15567;SDS011;7885;42.596;23.044;2022-09-03T09:27:06;3.30;;;2.90;;
15567;SDS011;7885;42.596;23.044;2022-09-03T09:29:34;3.30;;;2.97;;
15567;SDS011;7885;42.596;23.044;2022-09-03T09:32:02;4.00;;;3.70;;
15567;SDS011;7885;42.596;23.044;2022-09-03T09:34:33;4.38;;;3.92;;
15567;SDS011;7885;42.596;23.044;2022-09-03T09:37:02;5.60;;;5.10;;
15567;SDS011;7885;42.596;23.044;2022-09-03T09:39:31;4.10;;;3.80;;
15567;SDS011;7885;42.596;23.044;2022-09-03T09:41:57;3.40;;;3.20;;
15567;SDS011;7885;42.596;23.044;2022-09-03T09:44:27;3.67;;;3.40;;
15567;SDS011;7885;42.596;23.044;2022-09-03T09:47:01;2.97;;;2.78;;
15567;SDS011;7885;42.596;23.044;2022-09-03T09:49:31;3.65;;;3.38;;
15567;SDS011;7885;42.596;23.044;2022-09-03T09:52:00;3.85;;;3.47;;
15567;SDS011;7885;42.596;23.044;2022-09-03T09:54:28;5.38;;;4.88;;
15567;SDS011;7885;42.596;23.044;2022-09-03T09:56:58;3.60;;;3.30;;
15567;SDS011;7885;42.596;23.044;2022-09-03T09:59:26;3.25;;;3.05;;
15567;SDS011;7885;42.596;23.044;2022-09-03T10:02:01;3.30;;;3.10;;
15567;SDS011;7885;42.596;23.044;2022-09-03T10:04:33;3.08;;;2.60;;
15567;SDS011;7885;42.596;23.044;2022-09-03T10:07:02;5.78;;;3.20;;
15567;SDS011;7885;42.596;23.044;2022-09-03T10:09:45;4.65;;;3.10;;
15567;SDS011;7885;42.596;23.044;2022-09-03T10:12:24;2.92;;;2.72;;
15567;SDS011;7885;42.596;23.044;2022-09-03T10:14:59;3.17;;;2.97;;
15567;SDS011;7885;42.596;23.044;2022-09-03T10:17:39;3.55;;;2.88;;
15567;SDS011;7885;42.596;23.044;2022-09-03T10:20:14;2.90;;;2.70;;
15567;SDS011;7885;42.596;23.044;2022-09-03T10:22:55;3.00;;;2.80;;
15567;SDS011;7885;42.596;23.044;2022-09-03T10:25:26;2.80;;;2.60;;
15567;SDS011;7885;42.596;23.044;2022-09-03T10:28:03;2.80;;;2.60;;
15567;SDS011;7885;42.596;23.044;2022-09-03T10:30:36;5.03;;;3.30;;
15567;SDS011;7885;42.596;23.044;2022-09-03T10:33:15;3.25;;;3.05;;
15567;SDS011;7885;42.596;23.044;2022-09-03T10:35:51;2.90;;;2.70;;
15567;SDS011;7885;42.596;23.044;2022-09-03T10:38:25;3.53;;;3.22;;
15567;SDS011;7885;42.596;23.044;2022-09-03T10:40:57;3.03;;;2.78;;
15567;SDS011;7885;42.596;23.044;2022-09-03T10:43:38;2.80;;;2.60;;
15567;SDS011;7885;42.596;23.044;2022-09-03T10:46:21;4.78;;;3.70;;
15567;SDS011;7885;42.596;23.044;2022-09-03T10:49:03;3.75;;;3.50;;
15567;SDS011;7885;42.596;23.044;2022-09-03T10:51:41;3.60;;;3.40;;
15567;SDS011;7885;42.596;23.044;2022-09-03T10:54:24;4.15;;;3.80;;
15567;SDS011;7885;42.596;23.044;2022-09-03T10:57:02;3.40;;;3.20;;
15567;SDS011;7885;42.596;23.044;2022-09-03T10:59:41;4.53;;;4.13;;
15567;SDS011;7885;42.596;23.044;2022-09-03T11:02:27;3.90;;;3.60;;
15567;SDS011;7885;42.596;23.044;2022-09-03T11:05:12;3.92;;;3.63;;
15567;SDS011;7885;42.596;23.044;2022-09-03T11:07:45;3.63;;;3.42;;
15567;SDS011;7885;42.596;23.044;2022-09-03T11:20:22;3.30;;;3.03;;
15567;SDS011;7885;42.596;23.044;2022-09-03T11:22:50;3.67;;;3.47;;
15567;SDS011;7885;42.596;23.044;2022-09-03T11:25:20;3.42;;;3.22;;
15567;SDS011;7885;42.596;23.044;2022-09-03T11:28:00;3.55;;;3.35;;
15567;SDS011;7885;42.596;23.044;2022-09-03T11:30:37;3.80;;;3.42;;
15567;SDS011;7885;42.596;23.044;2022-09-03T11:33:16;3.67;;;3.38;;
15567;SDS011;7885;42.596;23.044;2022-09-03T11:35:48;3.50;;;3.20;;
15567;SDS011;7885;42.596;23.044;2022-09-03T11:38:22;3.00;;;2.80;;
15567;SDS011;7885;42.596;23.044;2022-09-03T11:40:57;3.25;;;3.00;;
15567;SDS011;7885;42.596;23.044;2022-09-03T11:43:27;3.40;;;3.20;;
15567;SDS011;7885;42.596;23.044;2022-09-03T11:46:04;2.78;;;2.58;;
15567;SDS011;7885;42.596;23.044;2022-09-03T11:48:37;3.30;;;3.10;;
15567;SDS011;7885;42.596;23.044;2022-09-03T11:51:21;3.20;;;3.00;;
15567;SDS011;7885;42.596;23.044;2022-09-03T11:53:58;3.30;;;3.10;;
15567;SDS011;7885;42.596;23.044;2022-09-03T11:56:26;2.63;;;2.50;;
15567;SDS011;7885;42.596;23.044;2022-09-03T11:59:05;3.30;;;2.72;;
15567;SDS011;7885;42.596;23.044;2022-09-03T12:01:46;3.75;;;2.90;;
15567;SDS011;7885;42.596;23.044;2022-09-03T12:04:17;2.95;;;2.70;;
15567;SDS011;7885;42.596;23.044;2022-09-03T12:06:58;3.20;;;3.00;;
15567;SDS011;7885;42.596;23.044;2022-09-03T12:09:44;3.08;;;2.88;;
15567;SDS011;7885;42.596;23.044;2022-09-03T12:12:27;3.13;;;2.92;;
15567;SDS011;7885;42.596;23.044;2022-09-03T12:15:08;8.35;;;3.80;;
15567;SDS011;7885;42.596;23.044;2022-09-03T12:17:44;3.10;;;2.90;;
15567;SDS011;7885;42.596;23.044;2022-09-03T12:20:37;3.58;;;3.38;;
15567;SDS011;7885;42.596;23.044;2022-09-03T12:23:06;2.85;;;2.58;;
15567;SDS011;7885;42.596;23.044;2022-09-03T12:25:41;4.47;;;4.15;;
15567;SDS011;7885;42.596;23.044;2022-09-03T12:28:12;4.55;;;4.15;;
15567;SDS011;7885;42.596;23.044;2022-09-03T12:30:43;3.10;;;2.90;;
15567;SDS011;7885;42.596;23.044;2022-09-03T12:33:10;3.00;;;2.70;;
15567;SDS011;7885;42.596;23.044;2022-09-03T12:35:42;2.70;;;2.50;;
15567;SDS011;7885;42.596;23.044;2022-09-03T12:38:12;3.28;;;2.20;;
15567;SDS011;7885;42.596;23.044;2022-09-03T12:40:41;2.60;;;2.50;;
15567;SDS011;7885;42.596;23.044;2022-09-03T12:43:12;2.90;;;2.70;;
15567;SDS011;7885;42.596;23.044;2022-09-03T12:45:41;2.58;;;2.47;;
15567;SDS011;7885;42.596;23.044;2022-09-03T12:48:11;2.55;;;2.35;;
15567;SDS011;7885;42.596;23.044;2022-09-03T12:50:40;2.78;;;2.58;;
15567;SDS011;7885;42.596;23.044;2022-09-03T12:53:08;2.60;;;2.40;;
15567;SDS011;7885;42.596;23.044;2022-09-03T12:55:41;2.92;;;2.53;;
15567;SDS011;7885;42.596;23.044;2022-09-03T12:58:11;2.65;;;2.50;;
15567;SDS011;7885;42.596;23.044;2022-09-03T13:00:44;3.38;;;3.08;;
15567;SDS011;7885;42.596;23.044;2022-09-03T13:03:16;3.13;;;2.83;;
15567;SDS011;7885;42.596;23.044;2022-09-03T13:05:48;3.22;;;3.03;;
15567;SDS011;7885;42.596;23.044;2022-09-03T13:08:20;4.88;;;2.50;;
15567;SDS011;7885;42.596;23.044;2022-09-03T13:10:50;3.60;;;3.30;;
15567;SDS011;7885;42.596;23.044;2022-09-03T13:13:20;3.00;;;2.80;;
15567;SDS011;7885;42.596;23.044;2022-09-03T13:15:54;2.92;;;2.72;;
15567;SDS011;7885;42.596;23.044;2022-09-03T13:18:26;3.47;;;3.00;;
15567;SDS011;7885;42.596;23.044;2022-09-03T13:21:05;3.03;;;2.83;;
15567;SDS011;7885;42.596;23.044;2022-09-03T13:23:53;3.10;;;2.90;;
15567;SDS011;7885;42.596;23.044;2022-09-03T13:26:34;3.00;;;2.80;;
15567;SDS011;7885;42.596;23.044;2022-09-03T13:29:18;3.35;;;3.05;;
15567;SDS011;7885;42.596;23.044;2022-09-03T13:31:59;6.05;;;3.30;;
15567;SDS011;7885;42.596;23.044;2022-09-03T13:34:34;2.90;;;2.70;;
15567;SDS011;7885;42.596;23.044;2022-09-03T13:37:08;2.97;;;2.78;;
15567;SDS011;7885;42.596;23.044;2022-09-03T13:39:45;3.13;;;2.83;;
15567;SDS011;7885;42.596;23.044;2022-09-03T13:42:19;3.42;;;3.13;;
15567;SDS011;7885;42.596;23.044;2022-09-03T13:44:51;3.00;;;2.80;;
15567;SDS011;7885;42.596;23.044;2022-09-03T13:47:26;2.90;;;2.70;;
15567;SDS011;7885;42.596;23.044;2022-09-03T13:50:00;3.05;;;2.85;;
15567;SDS011;7885;42.596;23.044;2022-09-03T13:52:47;3.60;;;3.30;;
15567;SDS011;7885;42.596;23.044;2022-09-03T13:55:24;3.15;;;2.95;;
15567;SDS011;7885;42.596;23.044;2022-09-03T13:57:55;3.63;;;3.10;;
15567;SDS011;7885;42.596;23.044;2022-09-03T14:00:26;4.07;;;3.40;;
15567;SDS011;7885;42.596;23.044;2022-09-03T14:02:57;3.30;;;3.05;;
15567;SDS011;7885;42.596;23.044;2022-09-03T14:05:35;3.13;;;2.83;;
15567;SDS011;7885;42.596;23.044;2022-09-03T14:08:27;2.83;;;2.63;;
15567;SDS011;7885;42.596;23.044;2022-09-03T14:11:04;3.20;;;2.90;;
15567;SDS011;7885;42.596;23.044;2022-09-03T14:13:47;3.63;;;3.00;;
15567;SDS011;7885;42.596;23.044;2022-09-03T14:16:28;2.85;;;2.60;;
15567;SDS011;7885;42.596;23.044;2022-09-03T14:19:03;3.10;;;2.90;;
15567;SDS011;7885;42.596;23.044;2022-09-03T14:21:38;3.85;;;2.70;;
15567;SDS011;7885;42.596;23.044;2022-09-03T14:24:12;4.07;;;2.85;;
15567;SDS011;7885;42.596;23.044;2022-09-03T14:26:49;3.00;;;2.80;;
15567;SDS011;7885;42.596;23.044;2022-09-03T14:29:20;3.25;;;2.80;;
15567;SDS011;7885;42.596;23.044;2022-09-03T14:34:46;2.83;;;2.63;;
15567;SDS011;7885;42.596;23.044;2022-09-03T14:37:31;3.30;;;3.00;;
15567;SDS011;7885;42.596;23.044;2022-09-03T14:40:12;3.95;;;3.20;;
15567;SDS011;7885;42.596;23.044;2022-09-03T14:42:47;3.50;;;3.30;;
15567;SDS011;7885;42.596;23.044;2022-09-03T14:45:42;7.20;;;4.72;;
15567;SDS011;7885;42.596;23.044;2022-09-03T14:48:22;3.90;;;3.50;;
15567;SDS011;7885;42.596;23.044;2022-09-03T14:51:04;4.45;;;3.60;;
15567;SDS011;7885;42.596;23.044;2022-09-03T14:53:49;5.47;;;3.75;;
15567;SDS011;7885;42.596;23.044;2022-09-03T14:56:37;4.07;;;3.60;;
15567;SDS011;7885;42.596;23.044;2022-09-03T14:59:22;3.95;;;3.55;;
15567;SDS011;7885;42.596;23.044;2022-09-03T15:02:13;4.15;;;3.80;;
15567;SDS011;7885;42.596;23.044;2022-09-03T15:05:03;3.97;;;3.67;;
15567;SDS011;7885;42.596;23.044;2022-09-03T15:07:38;3.60;;;3.30;;
15567;SDS011;7885;42.596;23.044;2022-09-03T15:10:14;4.07;;;3.78;;
15567;SDS011;7885;42.596;23.044;2022-09-03T15:12:47;3.92;;;3.63;;
15567;SDS011;7885;42.596;23.044;2022-09-03T15:15:18;5.53;;;4.40;;
15567;SDS011;7885;42.596;23.044;2022-09-03T15:17:53;6.05;;;5.20;;
15567;SDS011;7885;42.596;23.044;2022-09-03T15:20:29;3.78;;;3.22;;
15567;SDS011;7885;42.596;23.044;2022-09-03T15:23:11;5.88;;;4.60;;
15567;SDS011;7885;42.596;23.044;2022-09-03T15:25:49;4.63;;;3.85;;
15567;SDS011;7885;42.596;23.044;2022-09-03T15:28:36;4.70;;;4.30;;
15567;SDS011;7885;42.596;23.044;2022-09-03T15:31:17;4.50;;;3.50;;
15567;SDS011;7885;42.596;23.044;2022-09-03T15:33:49;4.68;;;4.28;;
15567;SDS011;7885;42.596;23.044;2022-09-03T15:36:25;4.80;;;4.40;;
15567;SDS011;7885;42.596;23.044;2022-09-03T15:39:00;4.75;;;4.30;;
15567;SDS011;7885;42.596;23.044;2022-09-03T15:41:36;4.43;;;4.03;;
15567;SDS011;7885;42.596;23.044;2022-09-03T15:44:07;5.15;;;4.28;;
15567;SDS011;7885;42.596;23.044;2022-09-03T15:46:46;4.45;;;4.15;;
15567;SDS011;7885;42.596;23.044;2022-09-03T15:56:06;4.78;;;4.25;;
15567;SDS011;7885;42.596;23.044;2022-09-03T15:58:41;5.30;;;4.80;;
15567;SDS011;7885;42.596;23.044;2022-09-03T16:01:19;4.90;;;4.60;;
15567;SDS011;7885;42.596;23.044;2022-09-03T16:03:55;4.65;;;4.20;;